createdAt,value
2019-05-03T00:02:28.371Z,9.90
2019-05-03T00:05:12.551Z,9.90
2019-05-03T00:07:42.143Z,9.90
2019-05-03T00:10:12.881Z,9.90
2019-05-03T00:12:42.256Z,9.80
2019-05-03T00:15:18.987Z,9.80
2019-05-03T00:17:48.397Z,9.80
2019-05-03T00:20:17.760Z,9.80
2019-05-03T00:22:46.998Z,9.80
2019-05-03T00:25:16.218Z,9.70
2019-05-03T00:27:45.410Z,9.70
2019-05-03T00:30:14.861Z,9.70
2019-05-03T00:32:44.248Z,9.70
2019-05-03T00:35:17.960Z,9.70
2019-05-03T00:37:48.859Z,9.70
2019-05-03T00:40:39.374Z,9.70
2019-05-03T00:43:08.538Z,9.60
2019-05-03T00:45:37.855Z,9.60
2019-05-03T00:48:07.301Z,9.60
2019-05-03T00:50:36.490Z,9.60
2019-05-03T00:53:05.992Z,9.60
2019-05-03T00:55:35.192Z,9.60
2019-05-03T00:58:04.516Z,9.60
2019-05-03T01:00:34.143Z,9.60
2019-05-03T01:03:03.438Z,9.60
2019-05-03T01:05:33.782Z,9.50
2019-05-03T01:08:03.065Z,9.50
2019-05-03T01:10:33.079Z,9.50
2019-05-03T01:13:01.711Z,9.50
2019-05-03T01:15:37.570Z,9.50
2019-05-03T01:18:08.586Z,9.50
2019-05-03T01:20:38.073Z,9.40
2019-05-03T01:23:07.369Z,9.40
2019-05-03T01:25:36.935Z,9.40
2019-05-03T01:28:06.441Z,9.40
2019-05-03T01:30:35.793Z,9.40
2019-05-03T01:33:05.043Z,9.40
2019-05-03T01:35:34.314Z,9.40
2019-05-03T01:38:03.659Z,9.40
2019-05-03T01:40:32.945Z,9.40
2019-05-03T01:43:02.370Z,9.30
2019-05-03T01:45:31.978Z,9.30
2019-05-03T01:48:12.524Z,9.30
2019-05-03T01:51:03.751Z,9.30
2019-05-03T01:53:33.867Z,9.30
2019-05-03T01:56:03.669Z,9.20
2019-05-03T01:58:32.989Z,9.20
2019-05-03T02:01:12.552Z,9.20
2019-05-03T02:03:48.686Z,9.20
2019-05-03T02:06:17.886Z,9.10
2019-05-03T02:08:47.199Z,9.10
2019-05-03T02:11:16.343Z,9.10
2019-05-03T02:13:45.581Z,9.00
2019-05-03T02:16:14.669Z,9.00
2019-05-03T02:18:43.931Z,9.00
2019-05-03T02:21:13.230Z,9.00
2019-05-03T02:23:42.675Z,9.00
2019-05-03T02:26:12.251Z,9.00
2019-05-03T02:28:42.177Z,9.00
2019-05-03T02:31:13.772Z,9.00
2019-05-03T02:33:43.491Z,8.90
2019-05-03T02:36:13.820Z,8.90
2019-05-03T02:38:43.361Z,8.80
2019-05-03T02:41:13.550Z,8.80
2019-05-03T02:43:47.056Z,8.80
2019-05-03T02:46:47.854Z,8.80
2019-05-03T02:49:25.514Z,8.80
2019-05-03T02:51:55.480Z,8.80
2019-05-03T02:54:26.871Z,8.80
2019-05-03T02:56:56.336Z,8.80
2019-05-03T02:59:28.675Z,8.80
2019-05-03T03:01:57.935Z,8.70
2019-05-03T03:04:27.646Z,8.70
2019-05-03T03:06:58.678Z,8.70
2019-05-03T03:09:28.970Z,8.70
2019-05-03T03:12:01.715Z,8.60
2019-05-03T03:14:36.018Z,8.70
2019-05-03T03:17:06.598Z,8.60
2019-05-03T03:19:38.609Z,8.60
2019-05-03T03:22:11.104Z,8.60
2019-05-03T03:24:45.781Z,8.60
2019-05-03T03:27:17.991Z,8.60
2019-05-03T03:29:51.212Z,8.50
2019-05-03T03:32:28.993Z,8.50
2019-05-03T03:35:12.337Z,8.50
2019-05-03T03:37:41.406Z,8.50
2019-05-03T03:40:10.836Z,8.40
2019-05-03T03:42:40.802Z,8.50
2019-05-03T03:45:10.186Z,8.40
2019-05-03T03:47:39.687Z,8.30
2019-05-03T03:50:09.667Z,8.20
2019-05-03T03:52:41.364Z,8.20
2019-05-03T03:55:10.976Z,8.30
2019-05-03T03:57:40.396Z,8.20
2019-05-03T04:00:10.541Z,8.20
2019-05-03T04:02:39.351Z,8.20
2019-05-03T04:05:09.357Z,8.20
2019-05-03T04:07:39.778Z,8.00
2019-05-03T04:10:11.932Z,8.00
2019-05-03T04:12:45.308Z,7.90
2019-05-03T04:15:45.392Z,7.90
2019-05-03T04:18:51.219Z,7.90
2019-05-03T04:21:21.031Z,7.90
2019-05-03T04:23:51.010Z,7.80
2019-05-03T04:26:20.381Z,7.80
2019-05-03T04:28:49.960Z,7.70
2019-05-03T04:31:19.609Z,7.70
2019-05-03T04:33:49.113Z,7.70
2019-05-03T04:36:18.573Z,7.70
2019-05-03T04:38:47.877Z,7.60
2019-05-03T04:41:17.413Z,7.60
2019-05-03T04:43:46.788Z,7.50
2019-05-03T04:46:20.072Z,7.50
2019-05-03T04:48:49.340Z,7.50
2019-05-03T04:51:18.766Z,7.50
2019-05-03T04:54:16.017Z,7.50
2019-05-03T04:56:46.198Z,7.50
2019-05-03T04:59:15.924Z,7.60
2019-05-03T05:01:46.243Z,7.60
2019-05-03T05:04:16.079Z,7.60
2019-05-03T05:06:45.611Z,7.60
2019-05-03T05:09:15.507Z,7.60
2019-05-03T05:11:45.795Z,7.50
2019-05-03T05:14:15.688Z,7.60
2019-05-03T05:16:46.515Z,7.60
2019-05-03T05:19:19.406Z,7.60
2019-05-03T05:21:52.632Z,7.60
2019-05-03T05:24:22.112Z,7.60
2019-05-03T05:27:10.352Z,7.60
2019-05-03T05:29:40.001Z,7.60
2019-05-03T05:32:09.269Z,7.60
2019-05-03T05:34:38.591Z,7.60
2019-05-03T05:37:08.134Z,7.60
2019-05-03T05:39:37.541Z,7.60
2019-05-03T05:42:06.868Z,7.60
2019-05-03T05:44:36.243Z,7.60
2019-05-03T05:47:26.643Z,7.60
2019-05-03T05:50:05.016Z,7.60
2019-05-03T05:52:34.690Z,7.50
2019-05-03T05:55:25.169Z,7.60
2019-05-03T05:58:04.744Z,7.60
2019-05-03T06:00:36.923Z,7.60
2019-05-03T06:03:06.531Z,7.70
2019-05-03T06:05:35.881Z,7.70
2019-05-03T06:08:25.151Z,7.70
2019-05-03T06:11:01.822Z,7.70
2019-05-03T06:13:44.646Z,7.70
2019-05-03T06:16:34.802Z,7.70
2019-05-03T06:19:16.555Z,7.70
2019-05-03T06:22:07.985Z,7.80
2019-05-03T06:24:42.265Z,7.80
2019-05-03T06:27:17.660Z,7.80
2019-05-03T06:29:48.406Z,7.90
2019-05-03T06:32:27.476Z,7.90
2019-05-03T06:34:56.917Z,7.90
2019-05-03T06:37:28.529Z,7.90
2019-05-03T06:39:58.063Z,7.90
2019-05-03T06:42:27.601Z,8.00
2019-05-03T06:44:59.634Z,8.00
2019-05-03T06:47:28.610Z,8.10
2019-05-03T06:49:58.187Z,8.10
2019-05-03T06:52:29.290Z,8.20
2019-05-03T06:55:00.481Z,8.20
2019-05-03T06:57:29.614Z,8.20
2019-05-03T07:00:06.701Z,8.20
2019-05-03T07:02:50.746Z,8.30
2019-05-03T07:05:45.122Z,8.30
2019-05-03T07:08:34.344Z,8.40
2019-05-03T07:11:05.203Z,8.50
2019-05-03T07:13:34.725Z,8.50
2019-05-03T07:16:04.682Z,8.50
2019-05-03T07:18:35.212Z,8.40
2019-05-03T07:21:04.987Z,8.50
2019-05-03T07:23:35.018Z,8.50
2019-05-03T07:26:05.370Z,8.60
2019-05-03T07:28:46.692Z,8.60
2019-05-03T07:31:05.897Z,8.60
2019-05-03T07:33:35.850Z,8.60
2019-05-03T07:36:05.537Z,8.50
2019-05-03T07:38:35.184Z,8.60
2019-05-03T07:41:07.424Z,8.60
2019-05-03T07:43:36.643Z,8.70
2019-05-03T07:46:06.034Z,8.70
2019-05-03T07:48:35.604Z,8.70
2019-05-03T07:51:05.636Z,8.80
2019-05-03T07:53:35.159Z,8.80
2019-05-03T07:56:10.165Z,8.90
2019-05-03T07:58:40.693Z,8.90
2019-05-03T08:01:15.012Z,8.90
2019-05-03T08:03:45.122Z,8.90
2019-05-03T08:06:14.957Z,9.00
2019-05-03T08:08:45.481Z,9.00
2019-05-03T08:11:15.033Z,9.00
2019-05-03T08:13:44.670Z,9.10
2019-05-03T08:16:15.912Z,9.10
2019-05-03T08:18:45.745Z,9.10
2019-05-03T08:21:14.880Z,9.20
2019-05-03T08:23:45.328Z,9.20
2019-05-03T08:26:17.591Z,9.30
2019-05-03T08:29:13.333Z,9.30
2019-05-03T08:32:11.156Z,9.30
2019-05-03T08:34:46.521Z,9.30
2019-05-03T08:37:39.884Z,9.40
2019-05-03T08:40:10.078Z,9.50
2019-05-03T08:42:39.515Z,9.50
2019-05-03T08:45:09.318Z,9.50
2019-05-03T08:47:39.194Z,9.50
2019-05-03T08:50:19.395Z,9.60
2019-05-03T08:52:49.929Z,9.60
2019-05-03T08:55:19.249Z,9.60
2019-05-03T08:57:48.518Z,9.60
2019-05-03T09:00:19.519Z,9.70
2019-05-03T09:02:48.956Z,9.70
2019-05-03T09:05:18.685Z,9.80
2019-05-03T09:07:50.709Z,9.80
2019-05-03T09:10:30.137Z,9.90
2019-05-03T09:13:06.476Z,9.90
2019-05-03T09:15:36.430Z,10.00
2019-05-03T09:18:06.872Z,10.10
2019-05-03T09:20:36.903Z,10.10
2019-05-03T09:23:06.645Z,10.10
2019-05-03T09:25:36.101Z,10.00
2019-05-03T09:28:06.267Z,10.00
2019-05-03T09:30:35.752Z,10.10
2019-05-03T09:33:08.636Z,10.10
2019-05-03T09:35:36.489Z,10.10
2019-05-03T09:38:06.007Z,10.20
2019-05-03T09:40:35.487Z,10.30
2019-05-03T09:43:05.040Z,10.30
2019-05-03T09:45:35.296Z,10.30
2019-05-03T09:48:05.773Z,10.40
2019-05-03T09:50:36.009Z,10.40
2019-05-03T09:53:05.742Z,10.50
2019-05-03T09:55:38.965Z,10.40
2019-05-03T09:58:08.194Z,10.40
2019-05-03T10:00:37.557Z,10.30
2019-05-03T10:03:06.818Z,10.30
2019-05-03T10:05:36.283Z,10.30
2019-05-03T10:08:05.587Z,10.40
2019-05-03T10:10:55.763Z,10.40
2019-05-03T10:13:27.188Z,10.50
2019-05-03T10:15:56.063Z,10.60
2019-05-03T10:18:25.418Z,10.60
2019-05-03T10:20:56.120Z,10.70
2019-05-03T10:23:45.210Z,10.70
2019-05-03T10:26:15.174Z,10.70
2019-05-03T10:28:44.540Z,10.60
2019-05-03T10:31:14.709Z,10.60
2019-05-03T10:33:47.019Z,10.50
2019-05-03T10:36:16.444Z,10.50
2019-05-03T10:38:46.293Z,10.60
2019-05-03T10:41:15.827Z,10.60
2019-05-03T10:43:45.363Z,10.60
2019-05-03T10:46:15.927Z,10.60
2019-05-03T10:48:45.694Z,10.60
2019-05-03T10:51:15.913Z,10.70
2019-05-03T10:53:48.963Z,10.70
2019-05-03T10:56:23.145Z,10.70
2019-05-03T10:58:55.081Z,10.70
2019-05-03T11:01:49.415Z,10.80
2019-05-03T11:04:18.845Z,10.80
2019-05-03T11:06:48.205Z,10.90
2019-05-03T11:09:17.425Z,10.90
2019-05-03T11:11:46.734Z,11.00
2019-05-03T11:14:15.994Z,11.00
2019-05-03T11:16:46.044Z,11.00
2019-05-03T11:19:16.241Z,10.90
2019-05-03T11:21:45.674Z,10.90
2019-05-03T11:24:15.234Z,10.90
2019-05-03T11:26:46.445Z,10.90
2019-05-03T11:29:16.070Z,10.80
2019-05-03T11:31:50.940Z,10.80
2019-05-03T11:34:22.694Z,10.90
2019-05-03T11:37:11.717Z,10.90
2019-05-03T11:39:41.085Z,10.80
2019-05-03T11:42:10.346Z,10.80
2019-05-03T11:44:39.736Z,10.80
2019-05-03T11:47:09.387Z,10.80
2019-05-03T11:49:38.818Z,10.80
2019-05-03T11:52:08.159Z,10.90
2019-05-03T11:54:37.685Z,10.90
2019-05-03T11:57:12.710Z,11.00
2019-05-03T11:59:42.021Z,11.10
2019-05-03T12:02:44.757Z,11.10
2019-05-03T12:05:24.358Z,11.20
2019-05-03T12:07:54.759Z,11.20
2019-05-03T12:10:36.027Z,11.20
2019-05-03T12:13:05.064Z,11.20
2019-05-03T12:15:35.184Z,11.20
2019-05-03T12:18:08.021Z,11.20
2019-05-03T12:20:39.317Z,11.30
2019-05-03T12:23:09.393Z,11.30
2019-05-03T12:25:40.141Z,11.30
2019-05-03T12:28:09.949Z,11.40
2019-05-03T12:30:39.085Z,11.40
2019-05-03T12:33:08.552Z,11.50
2019-05-03T12:35:37.752Z,11.50
2019-05-03T12:38:06.973Z,11.50
2019-05-03T12:40:36.401Z,11.50
2019-05-03T12:43:06.250Z,11.60
2019-05-03T12:45:38.157Z,11.60
2019-05-03T12:48:07.634Z,11.60
2019-05-03T12:50:37.544Z,11.60
2019-05-03T12:53:06.995Z,11.60
2019-05-03T12:55:36.181Z,11.60
2019-05-03T12:58:06.366Z,11.50
2019-05-03T13:00:55.692Z,11.50
2019-05-03T13:03:28.900Z,11.50
2019-05-03T13:05:58.203Z,11.50
2019-05-03T13:08:45.388Z,11.60
2019-05-03T13:11:14.517Z,11.60
2019-05-03T13:13:45.227Z,11.50
2019-05-03T13:16:18.345Z,11.50
2019-05-03T13:18:47.682Z,11.60
2019-05-03T13:21:17.073Z,11.60
2019-05-03T13:23:46.394Z,11.70
2019-05-03T13:26:15.705Z,11.70
2019-05-03T13:28:45.633Z,11.80
2019-05-03T13:31:16.134Z,11.90
2019-05-03T13:33:47.510Z,11.90
2019-05-03T13:36:16.798Z,11.90
2019-05-03T13:38:46.111Z,11.90
2019-05-03T13:41:15.507Z,11.80
2019-05-03T13:43:45.468Z,11.80
2019-05-03T13:46:15.694Z,11.80
2019-05-03T13:48:48.816Z,11.70
2019-05-03T13:51:16.021Z,11.70
2019-05-03T13:53:45.171Z,11.60
2019-05-03T13:56:15.299Z,11.50
2019-05-03T13:58:44.568Z,11.40
2019-05-03T14:01:14.749Z,11.30
2019-05-03T14:03:45.077Z,11.30
2019-05-03T14:06:14.211Z,11.30
2019-05-03T14:08:45.420Z,11.30
2019-05-03T14:11:15.575Z,11.30
2019-05-03T14:13:44.892Z,11.30
2019-05-03T14:16:14.531Z,11.30
2019-05-03T14:18:45.655Z,11.40
2019-05-03T14:21:20.162Z,11.50
2019-05-03T14:24:07.394Z,11.50
2019-05-03T14:26:36.790Z,11.60
2019-05-03T14:29:07.375Z,11.60
2019-05-03T14:31:37.165Z,11.60
2019-05-03T14:34:06.461Z,11.70
2019-05-03T14:36:36.132Z,11.80
2019-05-03T14:39:09.924Z,11.80
2019-05-03T14:41:39.664Z,11.80
2019-05-03T14:44:10.334Z,11.80
2019-05-03T14:46:39.926Z,11.90
2019-05-03T14:49:09.504Z,11.80
2019-05-03T14:51:39.054Z,11.80
2019-05-03T14:54:09.393Z,11.80
2019-05-03T14:56:45.513Z,11.70
2019-05-03T14:59:54.415Z,11.70
2019-05-03T15:02:44.419Z,11.60
2019-05-03T15:05:10.096Z,11.50
2019-05-03T15:07:39.521Z,11.40
2019-05-03T15:10:09.267Z,11.30
2019-05-03T15:12:38.685Z,11.30
2019-05-03T15:15:08.548Z,11.20
2019-05-03T15:17:37.852Z,11.20
2019-05-03T15:20:07.371Z,11.10
2019-05-03T15:22:36.786Z,11.10
2019-05-03T15:25:06.722Z,11.10
2019-05-03T15:27:39.234Z,11.10
2019-05-03T15:30:09.072Z,11.00
2019-05-03T15:32:38.638Z,10.90
2019-05-03T15:35:08.228Z,10.90
2019-05-03T15:37:37.755Z,10.90
2019-05-03T15:40:07.664Z,10.90
2019-05-03T15:42:38.853Z,10.90
2019-05-03T15:45:29.142Z,10.80
2019-05-03T15:48:16.409Z,10.80
2019-05-03T15:50:46.061Z,10.80
2019-05-03T15:53:15.341Z,10.80
2019-05-03T15:55:44.774Z,10.70
2019-05-03T15:58:15.387Z,10.80
2019-05-03T16:00:44.980Z,10.80
2019-05-03T16:03:14.596Z,10.80
2019-05-03T16:05:44.716Z,10.80
2019-05-03T16:08:13.084Z,10.70
2019-05-03T16:10:45.700Z,10.70
2019-05-03T16:13:14.998Z,10.70
2019-05-03T16:15:44.679Z,10.70
2019-05-03T16:18:17.132Z,10.70
2019-05-03T16:20:46.513Z,10.70
2019-05-03T16:23:16.078Z,10.60
2019-05-03T16:25:45.523Z,10.60
2019-05-03T16:28:24.848Z,10.70
2019-05-03T16:30:57.229Z,10.60
2019-05-03T16:33:28.178Z,10.60
2019-05-03T16:35:59.178Z,10.60
2019-05-03T16:38:28.578Z,10.60
2019-05-03T16:40:58.020Z,10.60
2019-05-03T16:43:27.316Z,10.60
2019-05-03T16:45:56.687Z,10.50
2019-05-03T16:48:26.146Z,10.50
2019-05-03T16:50:55.564Z,10.50
2019-05-03T16:53:25.485Z,10.50
2019-05-03T16:55:54.821Z,10.50
2019-05-03T16:58:24.748Z,10.50
2019-05-03T17:00:55.313Z,10.50
2019-05-03T17:03:38.698Z,10.60
2019-05-03T17:06:23.075Z,10.60
2019-05-03T17:09:14.403Z,10.60
2019-05-03T17:11:43.307Z,10.70
2019-05-03T17:14:15.578Z,10.70
2019-05-03T17:16:45.108Z,10.70
2019-05-03T17:19:14.755Z,10.70
2019-05-03T17:21:45.403Z,10.70
2019-05-03T17:24:15.474Z,10.70
2019-05-03T17:26:44.396Z,10.70
2019-05-03T17:29:13.512Z,10.70
2019-05-03T17:31:44.399Z,10.80
2019-05-03T17:34:14.475Z,10.70
2019-05-03T17:36:45.018Z,10.70
2019-05-03T17:39:16.650Z,10.70
2019-05-03T17:42:00.461Z,10.70
2019-05-03T17:44:40.465Z,10.60
2019-05-03T17:47:11.836Z,10.60
2019-05-03T17:49:40.868Z,10.60
2019-05-03T17:52:29.180Z,10.60
2019-05-03T17:55:35.105Z,10.50
2019-05-03T17:58:15.102Z,10.50
2019-05-03T18:01:11.323Z,10.50
2019-05-03T18:03:44.817Z,10.50
2019-05-03T18:06:34.738Z,10.40
2019-05-03T18:09:37.093Z,10.40
2019-05-03T18:12:06.531Z,10.40
2019-05-03T18:14:35.623Z,10.40
2019-05-03T18:17:05.697Z,10.40
2019-05-03T18:19:34.429Z,10.40
2019-05-03T18:22:05.184Z,10.40
2019-05-03T18:24:35.202Z,10.40
2019-05-03T18:27:04.741Z,10.30
2019-05-03T18:29:34.630Z,10.30
2019-05-03T18:32:03.032Z,10.30
2019-05-03T18:34:32.156Z,10.30
2019-05-03T18:37:01.466Z,10.30
2019-05-03T18:39:30.784Z,10.30
2019-05-03T18:42:00.112Z,10.30
2019-05-03T18:44:51.293Z,10.30
2019-05-03T18:47:25.070Z,10.30
2019-05-03T18:49:54.957Z,10.30
2019-05-03T18:52:24.468Z,10.30
2019-05-03T18:54:55.129Z,10.30
2019-05-03T18:57:25.574Z,10.30
2019-05-03T18:59:55.546Z,10.30
2019-05-03T19:02:26.257Z,10.30
2019-05-03T19:04:56.224Z,10.30
2019-05-03T19:07:45.374Z,10.30
2019-05-03T19:10:24.821Z,10.30
2019-05-03T19:12:57.775Z,10.30
2019-05-03T19:15:27.682Z,10.30
2019-05-03T19:18:15.570Z,10.30
2019-05-03T19:20:45.572Z,10.20
2019-05-03T19:23:15.393Z,10.20
2019-05-03T19:25:49.168Z,10.20
2019-05-03T19:28:16.683Z,10.20
2019-05-03T19:30:46.702Z,10.20
2019-05-03T19:33:15.980Z,10.20
2019-05-03T19:35:45.381Z,10.10
2019-05-03T19:38:15.175Z,10.10
2019-05-03T19:40:45.361Z,10.10
2019-05-03T19:43:15.243Z,10.10
2019-05-03T19:45:44.892Z,10.10
2019-05-03T19:48:14.767Z,10.00
2019-05-03T19:50:45.206Z,10.00
2019-05-03T19:53:22.373Z,10.00
2019-05-03T19:55:55.328Z,10.00
2019-05-03T19:58:28.093Z,10.00
2019-05-03T20:01:25.526Z,10.00
2019-05-03T20:03:59.917Z,9.90
2019-05-03T20:06:39.186Z,9.90
2019-05-03T20:09:12.313Z,9.90
2019-05-03T20:11:41.713Z,9.90
2019-05-03T20:14:11.041Z,9.90
2019-05-03T20:16:40.464Z,9.90
2019-05-03T20:19:18.804Z,9.90
2019-05-03T20:21:41.045Z,9.90
2019-05-03T20:24:10.393Z,9.80
2019-05-03T20:26:39.985Z,9.80
2019-05-03T20:29:09.342Z,9.80
2019-05-03T20:31:38.739Z,9.80
2019-05-03T20:34:08.392Z,9.80
2019-05-03T20:36:37.644Z,9.80
2019-05-03T20:39:07.519Z,9.80
2019-05-03T20:41:36.905Z,9.80
2019-05-03T20:44:35.381Z,9.90
2019-05-03T20:47:14.967Z,9.80
2019-05-03T20:49:45.810Z,9.80
2019-05-03T20:52:15.465Z,9.80
2019-05-03T20:54:44.824Z,9.80
2019-05-03T20:57:14.518Z,9.80
2019-05-03T20:59:48.706Z,9.80
2019-05-03T21:02:16.096Z,9.80
2019-05-03T21:04:44.512Z,9.80
2019-05-03T21:07:15.266Z,9.80
2019-05-03T21:09:45.570Z,9.80
2019-05-03T21:12:15.005Z,9.70
2019-05-03T21:15:53.832Z,9.70
2019-05-03T21:18:41.210Z,9.70
2019-05-03T21:21:28.168Z,9.70
2019-05-03T21:23:59.838Z,9.70
2019-05-03T21:26:29.492Z,9.70
2019-05-03T21:28:58.915Z,9.70
2019-05-03T21:31:28.114Z,9.70
2019-05-03T21:33:57.290Z,9.70
2019-05-03T21:36:26.670Z,9.70
2019-05-03T21:38:55.893Z,9.70
2019-05-03T21:41:25.034Z,9.70
2019-05-03T21:43:54.614Z,9.70
2019-05-03T21:46:34.007Z,9.60
2019-05-03T21:49:10.843Z,9.60
2019-05-03T21:51:40.220Z,9.60
2019-05-03T21:54:09.488Z,9.60
2019-05-03T21:56:38.779Z,9.60
2019-05-03T21:59:09.576Z,9.50
2019-05-03T22:01:42.633Z,9.50
2019-05-03T22:04:12.352Z,9.50
2019-05-03T22:06:41.891Z,9.50
2019-05-03T22:09:11.433Z,9.50
2019-05-03T22:11:40.866Z,9.40
2019-05-03T22:14:15.676Z,9.40
2019-05-03T22:17:14.936Z,9.30
2019-05-03T22:19:50.604Z,9.40
2019-05-03T22:22:58.554Z,9.30
2019-05-03T22:25:31.609Z,9.30
2019-05-03T22:28:00.930Z,9.20
2019-05-03T22:30:30.299Z,9.20
2019-05-03T22:32:59.819Z,9.10
2019-05-03T22:35:29.191Z,9.10
2019-05-03T22:37:58.875Z,9.10
2019-05-03T22:40:28.245Z,9.00
2019-05-03T22:42:57.783Z,9.00
2019-05-03T22:45:27.608Z,9.00
2019-05-03T22:47:56.851Z,8.90
2019-05-03T22:50:25.959Z,9.00
2019-05-03T22:52:55.331Z,8.90
2019-05-03T22:55:24.840Z,8.90
2019-05-03T22:57:57.235Z,8.80
2019-05-03T23:00:26.555Z,8.80
2019-05-03T23:02:55.796Z,8.70
2019-05-03T23:05:25.053Z,8.70
2019-05-03T23:07:55.220Z,8.70
2019-05-03T23:10:25.720Z,8.60
2019-05-03T23:12:55.198Z,8.60
2019-05-03T23:15:24.541Z,8.60
2019-05-03T23:17:54.574Z,8.50
2019-05-03T23:20:32.047Z,8.50
2019-05-03T23:23:01.349Z,8.50
2019-05-03T23:25:30.838Z,8.50
2019-05-03T23:28:01.497Z,8.50
2019-05-03T23:30:30.905Z,8.50
2019-05-03T23:33:00.333Z,8.40
2019-05-03T23:35:29.937Z,8.40
2019-05-03T23:37:59.293Z,8.40
2019-05-03T23:40:28.674Z,8.40
2019-05-03T23:42:58.040Z,8.40
2019-05-03T23:45:27.571Z,8.40
2019-05-03T23:47:57.923Z,8.40
2019-05-03T23:50:27.482Z,8.40
2019-05-03T23:52:58.168Z,8.40
2019-05-03T23:55:38.994Z,8.40
2019-05-03T23:58:08.462Z,8.40
